YPKG/KGI METAR and TAF weather

Enter ICAO airport designator
Station Type Date Time Source
YPKG METAR 2022/01/18 08:00 UTC NOAA

YPKG 180800Z AUTO 12013KT 9999 // NCD 32/06 Q1013 RF00.0/000.0


Station Type Date Time Source
YPKG Decoded METAR 2022/01/18 08:00 UTC NOAA

Kalgoorlie Boulder Amo, Australia (YPKG) 30-47S 121-27E 370M
Jan 18, 2022 - 03:00 AM EST / 2022.01.18 0800 UTC
Wind: from the ESE (120 degrees) at 15 MPH (13 KT):0
Visibility: greater than 7 mile(s):0
Temperature: 89 F (32 C)
Dew Point: 42 F (6 C)
Relative Humidity: 19%
Pressure (altimeter): 29.91 in. Hg (1013 hPa)
ob: YPKG 180800Z AUTO 12013KT 9999 // NCD 32/06 Q1013 RF00.0/000.0
cycle: 8

Station Type Date Time Source
YPKG TAF 2022/01/18 06:00 UTC NOAA

TAF YPKG 180503Z 1806/1906 12012KT CAVOK
FM181200 09012KT CAVOK

Example: see airport list